Time;durP1;ratioP1;P1;durP2;ratioP2;P2;SDS_P1;SDS_P2;PMS_P1;PMS_P2;Temp;Humidity;BMP_temperature;BMP_pressure;BME280_temperature;BME280_humidity;BME280_pressure;Samples;Min_cycle;Max_cycle;Signal;HPM_P1;HPM_P2
2022/10/04 00:01:59;;;;;;;2.87;1.95;;;;;;;8.64;99.01;99397.28;1688617;82;20985;-62
2022/10/04 00:04:41;;;;;;;2.17;1.65;;;;;;;8.63;99.13;99415.59;1683119;83;26791;-62
2022/10/04 00:07:19;;;;;;;2.30;1.62;;;;;;;8.62;99.19;99409.52;1708044;81;20982;-62
2022/10/04 00:09:57;;;;;;;4.25;2.17;;;;;;;8.62;99.22;99412.11;1769708;78;21463;-62
2022/10/04 00:12:27;;;;;;;;;;;;;;;8.65;100.00;99414.58;1815821;78;20924;-62
2022/10/04 00:14:58;;;;;;;3.27;1.95;;;;;;;8.69;99.70;99410.11;1815344;78;20461;-62
2022/10/04 00:17:30;;;;;;;2.62;1.82;;;;;;;8.72;99.65;99413.41;1825444;78;20906;-62
2022/10/04 00:19:58;;;;;;;1.62;1.52;;;;;;;8.77;99.70;99407.17;1791687;78;21089;-62
2022/10/04 00:22:32;;;;;;;2.15;1.95;;;;;;;8.78;99.59;99404.94;1820161;78;21045;-62
2022/10/04 00:25:13;;;;;;;2.37;1.80;;;;;;;8.82;100.00;99420.80;1806819;78;20900;-62
2022/10/04 00:28:01;;;;;;;4.20;1.82;;;;;;;8.84;99.90;99416.38;1816947;77;20974;-62
2022/10/04 00:30:36;;;;;;;3.47;2.52;;;;;;;8.86;99.97;99424.97;1786696;80;21029;-62
2022/10/04 00:33:03;;;;;;;3.47;2.00;;;;;;;8.89;99.85;99419.63;1763681;81;20918;-62
2022/10/04 00:35:34;;;;;;;;;;;;;;;8.91;99.71;99423.02;1787494;80;21480;-62
2022/10/04 00:38:13;;;;;;;5.65;2.40;;;;;;;8.91;99.63;99412.13;1784058;80;20110;-62
2022/10/04 00:41:00;;;;;;;2.47;1.80;;;;;;;8.90;100.00;99410.42;1783743;79;21438;-61
2022/10/04 00:43:36;;;;;;;2.00;1.80;;;;;;;8.88;100.00;99420.55;1777185;78;20898;-62
2022/10/04 00:46:10;;;;;;;2.95;1.60;;;;;;;8.87;100.00;99410.56;1776987;80;20941;-62
2022/10/04 00:48:56;;;;;;;2.15;1.77;;;;;;;8.86;99.98;99402.38;1757046;80;21093;-62
2022/10/04 00:51:46;;;;;;;3.23;2.30;;;;;;;8.87;100.00;99400.61;1732837;81;21063;-62
2022/10/04 00:54:34;;;;;;;4.22;1.90;;;;;;;8.87;100.00;99398.01;1766369;81;20981;-61
2022/10/04 00:57:12;;;;;;;5.05;2.42;;;;;;;8.85;100.00;99397.22;1786696;78;20942;-62
2022/10/04 00:59:48;;;;;;;4.72;2.00;;;;;;;8.84;99.97;99404.66;1752661;80;21046;-62
2022/10/04 01:02:20;;;;;;;3.33;2.05;;;;;;;8.79;99.97;99396.20;1787454;80;21119;-62
2022/10/04 01:05:00;;;;;;;3.12;2.45;;;;;;;8.73;100.00;99400.77;1819458;78;20924;-62
2022/10/04 01:07:32;;;;;;;4.28;1.95;;;;;;;8.67;100.00;99390.64;1807586;78;20967;-61
2022/10/04 01:10:16;;;;;;;4.28;2.30;;;;;;;8.66;100.00;99399.37;1824146;78;21489;-61
2022/10/04 01:13:24;;;;;;;4.50;2.33;;;;;;;8.62;100.00;99396.50;1795863;78;21518;-62
2022/10/04 01:16:13;;;;;;;4.58;2.85;;;;;;;8.60;100.00;99397.48;1789639;79;21106;-62
2022/10/04 01:18:40;;;;;;;4.05;2.10;;;;;;;8.54;100.00;99395.99;1786743;79;21595;-62
2022/10/04 01:21:23;;;;;;;3.15;2.40;;;;;;;8.53;100.00;99398.22;1709911;83;20984;-62
2022/10/04 01:24:01;;;;;;;4.87;3.05;;;;;;;8.51;100.00;99396.12;1735645;81;21621;-62
2022/10/04 01:26:36;;;;;;;4.65;3.80;;;;;;;8.50;100.00;99398.35;1736505;81;21021;-63
2022/10/04 01:29:17;;;;;;;4.95;2.83;;;;;;;8.44;100.00;99397.33;1737715;81;21058;-62
2022/10/04 01:31:49;;;;;;;5.53;2.80;;;;;;;8.47;100.00;99397.19;1731110;81;20993;-62
2022/10/04 01:34:21;;;;;;;6.95;2.70;;;;;;;8.49;100.00;99392.77;1735999;81;20962;-62
2022/10/04 01:36:51;;;;;;;5.28;2.92;;;;;;;8.48;100.00;99403.61;1733208;81;22589;-62
2022/10/04 01:39:20;;;;;;;4.95;2.60;;;;;;;8.53;100.00;99399.52;1710361;82;20925;-62
2022/10/04 01:42:21;;;;;;;4.60;3.40;;;;;;;8.55;100.00;99410.71;1735604;81;21049;-62
2022/10/04 01:45:15;;;;;;;5.12;2.40;;;;;;;8.56;100.00;99404.58;1738230;81;20942;-62
2022/10/04 01:47:50;;;;;;;6.00;3.12;;;;;;;8.59;100.00;99407.05;1737676;81;20906;-62
2022/10/04 01:50:22;;;;;;;4.15;2.90;;;;;;;8.60;100.00;99406.16;1733346;81;20954;-62
2022/10/04 01:52:54;;;;;;;2.08;1.87;;;;;;;8.71;100.00;99406.52;1734613;81;20985;-62
2022/10/04 01:55:33;;;;;;;3.83;1.90;;;;;;;8.78;100.00;99402.34;1736701;81;21872;-62
2022/10/04 01:58:13;;;;;;;4.12;2.98;;;;;;;8.64;100.00;99405.09;1736979;81;20986;-62
2022/10/04 02:00:54;;;;;;;4.20;2.08;;;;;;;8.61;100.00;99407.83;1736667;81;20991;-62
2022/10/04 02:03:32;;;;;;;5.17;2.65;;;;;;;8.62;100.00;99407.37;1738475;81;20906;-61
2022/10/04 02:06:04;;;;;;;6.85;2.95;;;;;;;8.65;100.00;99408.07;1730183;81;20993;-62
2022/10/04 02:08:36;;;;;;;2.52;2.12;;;;;;;8.71;100.00;99410.86;1734186;81;21049;-62
2022/10/04 02:11:05;;;;;;;8.48;3.20;;;;;;;8.76;100.00;99408.90;1734976;80;21471;-62
2022/10/04 02:13:36;;;;;;;5.28;2.65;;;;;;;8.79;100.00;99407.92;1777885;78;20907;-62
2022/10/04 02:16:10;;;;;;;3.08;2.08;;;;;;;8.82;100.00;99407.78;1773077;80;20903;-62
2022/10/04 02:18:42;;;;;;;6.10;2.70;;;;;;;8.86;100.00;99411.95;1772732;80;21464;-62
2022/10/04 02:21:12;;;;;;;5.65;2.47;;;;;;;8.88;100.00;99407.53;1776913;80;21687;-62
2022/10/04 02:23:41;;;;;;;2.62;2.15;;;;;;;8.89;100.00;99411.81;1773738;80;20954;-62
2022/10/04 02:26:09;;;;;;;2.75;2.17;;;;;;;8.98;100.00;99407.48;1772546;80;21012;-62
2022/10/04 02:28:37;;;;;;;6.28;2.02;;;;;;;8.92;100.00;99409.06;1774299;79;20969;-62
2022/10/04 02:33:56;;;;;;;4.05;2.22;;;;;;;8.89;100.00;99406.14;1751117;80;21119;-62
2022/10/04 02:36:26;;;;;;;2.22;2.02;;;;;;;8.83;100.00;99402.52;1774359;80;21380;-62
2022/10/04 02:39:10;;;;;;;3.20;2.10;;;;;;;8.74;100.00;99395.97;1777208;80;20914;-62
2022/10/04 02:42:00;;;;;;;3.15;2.20;;;;;;;8.69;100.00;99400.53;1775106;78;21430;-62
2022/10/04 02:44:35;;;;;;;3.85;2.67;;;;;;;8.70;100.00;99403.52;1776410;80;20959;-62
2022/10/04 02:47:22;;;;;;;3.10;1.92;;;;;;;8.68;100.00;99404.06;1763363;80;21056;-62
2022/10/04 02:49:53;;;;;;;12.07;2.67;;;;;;;8.66;100.00;99403.28;1747500;80;20986;-62
2022/10/04 02:52:32;;;;;;;5.80;2.27;;;;;;;8.66;100.00;99412.38;1766178;78;21011;-62
2022/10/04 02:55:06;;;;;;;2.08;1.80;;;;;;;8.65;100.00;99413.28;1758253;79;20953;-62
2022/10/04 02:57:34;;;;;;;2.83;2.30;;;;;;;8.65;100.00;99413.28;1753265;81;21045;-62
2022/10/04 03:00:27;;;;;;;2.77;1.98;;;;;;;8.64;100.00;99406.39;1756184;81;21047;-62
2022/10/04 03:03:30;;;;;;;3.55;2.00;;;;;;;8.63;100.00;99399.97;1760385;81;20922;-62
2022/10/04 03:06:09;;;;;;;2.62;2.08;;;;;;;8.58;100.00;99409.73;1759648;80;21535;-62
2022/10/04 03:08:47;;;;;;;2.72;2.05;;;;;;;8.56;100.00;99412.39;1761401;81;21468;-62
2022/10/04 03:11:15;;;;;;;3.12;2.20;;;;;;;8.58;100.00;99405.37;1759072;79;20906;-62
2022/10/04 03:13:46;;;;;;;5.42;1.70;;;;;;;8.55;100.00;99412.48;1766404;81;21815;-62
2022/10/04 03:16:14;;;;;;;3.37;1.77;;;;;;;8.55;100.00;99421.13;1759386;81;20949;-62
2022/10/04 03:18:43;;;;;;;3.08;1.57;;;;;;;8.55;100.00;99415.91;1756678;81;20937;-62
2022/10/04 03:21:14;;;;;;;3.98;2.00;;;;;;;8.55;100.00;99421.13;1762051;81;21539;-62
2022/10/04 03:23:42;;;;;;;2.22;1.50;;;;;;;8.62;100.00;99418.62;1755663;81;20926;-62
2022/10/04 03:26:46;;;;;;;2.60;1.90;;;;;;;8.61;100.00;99416.94;1762321;81;21004;-62
2022/10/04 03:29:15;;;;;;;3.37;1.90;;;;;;;8.60;100.00;99419.17;1761471;81;20903;-62
2022/10/04 03:31:46;;;;;;;2.58;2.27;;;;;;;8.62;100.00;99422.52;1727777;81;20933;-62
2022/10/04 03:34:22;;;;;;;3.77;1.77;;;;;;;8.68;100.00;99427.48;1755869;81;21005;-62
2022/10/04 03:36:52;;;;;;;2.77;1.80;;;;;;;8.64;100.00;99428.98;1754995;81;21049;-62
2022/10/04 03:39:35;;;;;;;2.98;1.80;;;;;;;8.56;100.00;99430.61;1756912;81;21188;-63
2022/10/04 03:42:15;;;;;;;3.05;1.67;;;;;;;8.56;100.00;99434.51;1764234;81;21559;-62
2022/10/04 03:44:44;;;;;;;1.67;1.55;;;;;;;8.56;100.00;99437.11;1762549;81;20867;-62
2022/10/04 03:47:22;;;;;;;2.00;1.80;;;;;;;8.55;100.00;99427.63;1759367;81;21092;-62
2022/10/04 03:49:51;;;;;;;2.80;1.72;;;;;;;8.56;100.00;99431.91;1759115;81;20977;-62
2022/10/04 03:52:28;;;;;;;2.45;1.60;;;;;;;8.61;100.00;99436.46;1757925;79;21157;-62
2022/10/04 03:55:02;;;;;;;1.50;1.40;;;;;;;8.69;100.00;99442.17;1762042;81;21663;-62
2022/10/04 03:57:29;;;;;;;4.10;1.95;;;;;;;8.81;100.00;99439.48;1735348;81;21413;-62
2022/10/04 03:59:56;;;;;;;;;;;;;;;8.87;100.00;99437.06;1759069;79;21924;-62
2022/10/04 04:02:34;;;;;;;2.77;1.50;;;;;;;8.91;100.00;99443.84;1766677;81;20101;-62
2022/10/04 04:05:21;;;;;;;2.77;1.40;;;;;;;8.93;100.00;99436.78;1764108;81;21132;-61
2022/10/04 04:08:00;;;;;;;;;;;;;;;8.94;100.00;99442.40;1760220;81;21056;-61
2022/10/04 04:10:33;;;;;;;2.42;1.30;;;;;;;8.90;100.00;99446.03;1760775;81;21151;-62
2022/10/04 04:13:29;;;;;;;2.90;1.65;;;;;;;8.95;100.00;99445.37;1758581;81;21000;-62
2022/10/04 04:16:00;;;;;;;4.47;1.37;;;;;;;9.00;100.00;99445.18;1748998;80;21515;-62
2022/10/04 04:18:34;;;;;;;2.45;1.65;;;;;;;9.03;100.00;99438.06;1812144;78;21253;-62
2022/10/04 04:21:04;;;;;;;3.92;1.92;;;;;;;9.02;100.00;99440.30;1816815;78;21455;-62
2022/10/04 04:23:38;;;;;;;5.15;1.77;;;;;;;9.08;100.00;99446.52;1810799;77;20974;-62
2022/10/04 04:26:39;;;;;;;9.55;1.60;;;;;;;9.10;100.00;99449.91;1805992;78;21449;-61
2022/10/04 04:29:26;;;;;;;3.33;1.65;;;;;;;9.10;100.00;99447.30;1755305;80;20883;-62
2022/10/04 04:32:00;;;;;;;3.37;1.60;;;;;;;9.09;100.00;99446.90;1755909;81;25106;-61
2022/10/04 04:34:31;;;;;;;3.10;1.60;;;;;;;9.02;100.00;99452.02;1752958;81;20942;-62
2022/10/04 04:37:01;;;;;;;3.40;1.60;;;;;;;8.96;100.00;99458.77;1777504;79;20947;-62
2022/10/04 04:39:35;;;;;;;5.62;2.15;;;;;;;8.93;100.00;99464.12;1753451;80;20891;-62
2022/10/04 04:42:15;;;;;;;2.62;1.70;;;;;;;8.94;100.00;99461.47;1748287;81;20912;-62
2022/10/04 04:44:59;;;;;;;2.95;1.57;;;;;;;8.93;100.00;99466.72;1752690;79;21041;-63
2022/10/04 04:47:43;;;;;;;4.22;1.80;;;;;;;8.95;100.00;99466.20;1752016;79;21559;-61
2022/10/04 04:50:16;;;;;;;4.55;1.62;;;;;;;8.88;100.00;99464.81;1726465;81;20866;-62
2022/10/04 04:52:51;;;;;;;4.90;2.02;;;;;;;8.89;100.00;99463.88;1757750;79;21001;-62
2022/10/04 04:55:27;;;;;;;5.87;3.12;;;;;;;8.91;100.00;99467.27;1754129;81;21499;-62
2022/10/04 04:57:57;;;;;;;6.22;3.40;;;;;;;8.93;100.00;99473.23;1751546;79;21054;-60
2022/10/04 05:00:37;;;;;;;4.83;2.60;;;;;;;8.92;100.00;99463.75;1744553;81;20973;-61
2022/10/04 05:03:10;;;;;;;8.05;3.17;;;;;;;8.93;100.00;99471.50;1747970;81;20902;-61
2022/10/04 05:05:37;;;;;;;3.40;2.55;;;;;;;8.97;100.00;99472.20;1753331;79;20954;-61
2022/10/04 05:08:18;;;;;;;4.57;1.80;;;;;;;8.97;100.00;99480.02;1755397;79;21526;-61
2022/10/04 05:10:59;;;;;;;1.82;1.50;;;;;;;8.99;100.00;99486.01;1749346;81;21959;-61
2022/10/04 05:13:39;;;;;;;1.87;1.40;;;;;;;9.02;100.00;99479.78;1750032;80;20879;-61
2022/10/04 05:16:16;;;;;;;2.55;1.35;;;;;;;9.07;100.00;99482.58;1754232;80;20958;-62
2022/10/04 05:18:44;;;;;;;2.77;1.50;;;;;;;9.12;100.00;99490.19;1760900;80;21456;-61
2022/10/04 05:21:23;;;;;;;3.27;1.80;;;;;;;9.15;100.00;99481.77;1753202;81;20938;-61
2022/10/04 05:23:50;;;;;;;3.60;1.70;;;;;;;9.19;100.00;99487.72;1760556;81;21084;-61
2022/10/04 05:26:22;;;;;;;2.85;1.75;;;;;;;9.29;100.00;99484.22;1753707;81;20957;-62
2022/10/04 05:28:49;;;;;;;1.47;1.37;;;;;;;9.39;100.00;99482.89;1758252;79;20985;-62
2022/10/04 05:31:50;;;;;;;2.15;1.57;;;;;;;9.42;100.00;99481.45;1756807;79;21582;-61
2022/10/04 05:34:29;;;;;;;2.92;1.80;;;;;;;9.47;100.00;99482.08;1751422;81;20954;-62
2022/10/04 05:37:31;;;;;;;2.50;1.95;;;;;;;9.51;100.00;99486.22;1754487;79;21971;-62
2022/10/04 05:40:15;;;;;;;5.08;1.65;;;;;;;9.53;100.00;99487.00;1757065;81;20921;-61
2022/10/04 05:42:45;;;;;;;2.12;1.70;;;;;;;9.49;100.00;99490.65;1749690;81;20942;-62
2022/10/04 05:45:26;;;;;;;4.47;1.90;;;;;;;9.48;100.00;99502.00;1751460;81;20910;-62
2022/10/04 05:47:59;;;;;;;4.17;2.00;;;;;;;9.49;100.00;99503.69;1754702;79;20922;-60
2022/10/04 05:50:34;;;;;;;3.83;2.00;;;;;;;9.59;100.00;99507.56;1756781;80;21046;-60
2022/10/04 05:53:34;;;;;;;2.17;1.77;;;;;;;9.76;100.00;99515.89;1755083;80;38653;-60
2022/10/04 05:56:24;;;;;;;2.77;1.50;;;;;;;9.81;100.00;99509.17;1758709;81;20973;-61
2022/10/04 05:59:02;;;;;;;3.22;1.92;;;;;;;9.98;100.00;99509.20;1756938;81;21619;-61
2022/10/04 06:01:49;;;;;;;2.10;1.50;;;;;;;9.96;100.00;99503.20;1756321;81;20994;-61
2022/10/04 06:04:53;;;;;;;3.65;1.85;;;;;;;9.91;100.00;99513.01;1758827;80;21055;-61
2022/10/04 06:07:43;;;;;;;4.20;1.72;;;;;;;9.84;100.00;99516.84;1754223;79;20903;-62
2022/10/04 06:10:44;;;;;;;2.85;1.80;;;;;;;9.79;100.00;99517.05;1751219;79;21076;-61
2022/10/04 06:13:50;;;;;;;4.87;1.72;;;;;;;10.02;100.00;99526.38;1751809;81;21449;-62
2022/10/04 06:16:53;;;;;;;5.08;1.90;;;;;;;10.39;100.00;99527.25;1756331;79;21077;-61
2022/10/04 06:19:59;;;;;;;2.62;1.82;;;;;;;10.85;100.00;99530.14;1722694;81;27056;-62
2022/10/04 06:22:26;;;;;;;2.67;1.60;;;;;;;11.39;100.00;99530.77;1720763;82;21542;-62
2022/10/04 06:25:08;;;;;;;1.62;1.32;;;;;;;11.79;100.00;99533.86;1724863;81;20988;-62
2022/10/04 06:27:52;;;;;;;3.15;1.40;;;;;;;11.71;99.12;99533.42;1718991;81;21019;-62
2022/10/04 06:30:20;;;;;;;1.90;1.57;;;;;;;11.61;99.69;99537.46;1719667;81;21460;-62
2022/10/04 06:33:15;;;;;;;6.72;2.05;;;;;;;11.38;99.64;99539.55;1719806;81;21720;-63
2022/10/04 06:35:53;;;;;;;2.80;1.87;;;;;;;11.20;99.89;99544.43;1725065;81;20933;-62
2022/10/04 06:38:57;;;;;;;3.52;1.80;;;;;;;11.27;100.00;99541.89;1722609;81;20960;-62
2022/10/04 06:41:38;;;;;;;7.03;2.08;;;;;;;11.25;100.00;99551.58;1715859;81;21011;-62
2022/10/04 06:44:39;;;;;;;2.33;1.52;;;;;;;11.14;100.00;99551.29;1717321;81;21046;-62
2022/10/04 06:47:17;;;;;;;2.02;1.70;;;;;;;10.92;100.00;99560.27;1771334;79;21464;-62
2022/10/04 06:50:26;;;;;;;2.65;1.62;;;;;;;10.94;100.00;99566.23;1762117;79;21480;-62
2022/10/04 06:53:15;;;;;;;3.15;1.70;;;;;;;11.01;100.00;99543.27;1774604;80;21631;-61
2022/10/04 06:55:53;;;;;;;3.47;1.70;;;;;;;11.10;100.00;99557.15;1801867;78;20890;-62
2022/10/04 06:58:57;;;;;;;5.35;1.57;;;;;;;11.32;100.00;99563.41;1799223;78;20956;-62
2022/10/04 07:01:35;;;;;;;4.42;1.37;;;;;;;11.37;100.00;99561.40;1802619;78;21050;-61
2022/10/04 07:04:35;;;;;;;4.33;1.57;;;;;;;11.29;100.00;99568.80;1797998;78;20859;-61
2022/10/04 07:07:34;;;;;;;4.70;1.92;;;;;;;11.22;100.00;99571.34;1806218;78;20921;-62
2022/10/04 07:10:06;;;;;;;2.52;1.40;;;;;;;11.14;100.00;99569.58;1805537;78;20887;-62
2022/10/04 07:12:41;;;;;;;5.25;1.72;;;;;;;11.04;100.00;99578.84;1806153;78;20890;-61
2022/10/04 07:15:20;;;;;;;2.30;1.60;;;;;;;10.87;100.00;99577.93;1818054;78;21051;-62
2022/10/04 07:17:50;;;;;;;1.70;1.55;;;;;;;10.78;100.00;99590.59;1813427;78;20934;-61
2022/10/04 07:20:29;;;;;;;2.75;1.40;;;;;;;10.68;100.00;99574.55;1822493;77;21092;-62
2022/10/04 07:23:25;;;;;;;3.40;1.47;;;;;;;10.64;100.00;99597.80;1825463;78;22419;-62
2022/10/04 07:26:00;;;;;;;3.07;1.60;;;;;;;10.50;100.00;99579.77;1821277;78;20899;-61
2022/10/04 07:31:29;;;;;;;2.55;1.52;;;;;;;10.88;100.00;99605.73;1819715;78;20955;-62
2022/10/04 07:34:14;;;;;;;3.95;1.45;;;;;;;11.28;100.00;99580.16;1784506;80;20938;-62
2022/10/04 07:36:53;;;;;;;2.12;1.30;;;;;;;11.38;100.00;99585.77;1762582;79;21128;-62
2022/10/04 07:39:31;;;;;;;2.47;1.52;;;;;;;11.40;100.00;99613.52;1761995;81;21508;-62
2022/10/04 07:42:19;;;;;;;1.77;1.42;;;;;;;11.40;100.00;99613.52;1784369;80;21289;-62
2022/10/04 07:45:01;;;;;;;4.10;1.55;;;;;;;11.33;100.00;99613.44;1786309;80;20953;-62
2022/10/04 07:47:28;;;;;;;5.83;1.57;;;;;;;11.33;100.00;99609.52;1783272;80;20973;-62
2022/10/04 07:49:57;;;;;;;3.15;1.77;;;;;;;11.46;99.74;99612.34;1784954;80;21618;-62
2022/10/04 07:52:47;;;;;;;1.25;1.15;;;;;;;11.36;100.00;99611.97;1785239;80;20937;-62
2022/10/04 07:55:32;;;;;;;2.62;1.50;;;;;;;11.36;100.00;99615.89;1783420;80;21039;-62
2022/10/04 07:58:22;;;;;;;3.40;1.35;;;;;;;11.24;99.77;99617.01;1778666;80;20993;-62
2022/10/04 08:01:03;;;;;;;3.30;1.10;;;;;;;11.27;100.00;99627.30;1782950;80;20898;-62
2022/10/04 08:04:01;;;;;;;3.58;1.17;;;;;;;11.02;99.42;99608.11;1731082;81;20980;-62
2022/10/04 08:06:59;;;;;;;1.52;1.10;;;;;;;11.10;99.38;99634.70;1726100;80;21551;-62
2022/10/04 08:09:56;;;;;;;4.08;1.20;;;;;;;11.34;100.00;99636.06;1733144;82;21041;-62
2022/10/04 08:12:36;;;;;;;;;;;;;;;11.78;100.00;99631.55;1736169;82;21911;-62
2022/10/04 08:15:16;;;;;;;8.43;2.08;;;;;;;12.09;99.61;99646.92;1625597;87;20164;-62
2022/10/04 08:18:14;;;;;;;3.65;0.82;;;;;;;12.16;99.30;99641.75;1660768;85;20947;-62
2022/10/04 08:20:48;;;;;;;1.52;0.90;;;;;;;12.14;98.49;99650.61;1661908;86;21491;-62
2022/10/04 08:23:34;;;;;;;1.67;0.80;;;;;;;12.09;98.01;99656.09;1636245;86;21114;-62
2022/10/04 08:26:27;;;;;;;1.30;0.80;;;;;;;11.98;94.77;99665.82;1659408;85;20932;-62
2022/10/04 08:32:13;;;;;;;1.42;0.70;;;;;;;12.08;95.67;99675.34;1568096;90;21229;-62
2022/10/04 08:35:15;;;;;;;1.05;0.65;;;;;;;11.98;95.30;99670.22;1569054;90;21094;-62
2022/10/04 08:38:20;;;;;;;2.75;0.70;;;;;;;12.17;95.95;99680.07;1568144;90;21105;-63
2022/10/04 08:41:23;;;;;;;1.05;0.88;;;;;;;12.49;96.23;99683.98;1599639;87;21513;-62
2022/10/04 08:44:33;;;;;;;0.98;0.80;;;;;;;12.61;94.67;99684.62;1548509;91;21022;-62
2022/10/04 08:47:33;;;;;;;1.60;0.80;;;;;;;12.85;92.14;99689.40;1598736;87;21707;-62
2022/10/04 08:50:41;;;;;;;1.05;0.60;;;;;;;12.92;94.17;99682.89;1596919;88;20958;-62
2022/10/04 08:53:54;;;;;;;5.35;1.22;;;;;;;12.96;94.67;99687.00;1657855;84;21094;-62
2022/10/04 08:57:05;;;;;;;0.90;0.57;;;;;;;12.86;93.37;99681.94;1673822;84;21045;-62
2022/10/04 09:00:08;;;;;;;0.78;0.60;;;;;;;13.03;94.20;99694.91;1671044;84;21006;-62
2022/10/04 09:03:18;;;;;;;2.05;1.15;;;;;;;13.35;95.41;99696.14;1676098;84;21566;-62
2022/10/04 09:05:58;;;;;;;1.27;0.70;;;;;;;13.42;93.15;99694.86;1698388;81;21158;-62
2022/10/04 09:09:07;;;;;;;2.05;0.70;;;;;;;13.23;92.58;99697.67;1736421;81;21026;-64
2022/10/04 09:12:04;;;;;;;1.92;0.50;;;;;;;13.21;90.99;99710.86;1736912;81;21932;-63
2022/10/04 09:15:25;;;;;;;1.62;0.50;;;;;;;12.97;85.20;99707.06;1712068;80;20974;-64
2022/10/04 09:18:19;;;;;;;0.93;0.47;;;;;;;12.92;85.47;99701.23;1701560;83;21493;-64
2022/10/04 09:21:03;;;;;;;0.70;0.50;;;;;;;12.83;86.18;99707.01;1766950;79;20962;-65
2022/10/04 09:23:36;;;;;;;0.88;0.40;;;;;;;12.75;85.75;99700.41;1793559;78;21885;-64
2022/10/04 09:26:22;;;;;;;1.65;0.50;;;;;;;13.03;90.34;99706.70;1793012;78;20957;-64
2022/10/04 09:29:28;;;;;;;1.05;0.40;;;;;;;13.17;90.04;99714.61;1790714;79;20941;-65
2022/10/04 09:32:15;;;;;;;1.60;0.50;;;;;;;13.03;88.03;99717.19;1792121;79;20911;-65
2022/10/04 09:34:56;;;;;;;1.60;0.50;;;;;;;12.84;88.26;99716.55;1786303;79;20906;-65
2022/10/04 09:37:57;;;;;;;3.60;1.77;;;;;;;12.78;88.47;99722.14;1789895;79;21108;-65
2022/10/04 09:40:54;;;;;;;2.37;1.20;;;;;;;12.76;87.45;99730.91;1783033;79;21496;-64
2022/10/04 09:43:41;;;;;;;3.92;0.78;;;;;;;12.89;85.17;99732.86;1781548;78;21038;-63
2022/10/04 09:46:30;;;;;;;1.98;0.70;;;;;;;13.27;89.66;99734.60;1785321;79;20977;-60
2022/10/04 09:49:34;;;;;;;2.08;0.50;;;;;;;13.58;88.51;99732.80;1788378;79;21503;-61
2022/10/04 09:52:24;;;;;;;1.67;0.53;;;;;;;13.69;86.35;99742.19;1721978;82;22346;-62
2022/10/04 09:55:05;;;;;;;5.15;0.60;;;;;;;13.46;81.09;99743.55;1717806;82;21808;-61
2022/10/04 09:58:04;;;;;;;1.02;0.50;;;;;;;13.33;83.60;99742.58;1718151;82;20989;-62
2022/10/04 10:00:48;;;;;;;3.30;0.57;;;;;;;13.44;80.53;99755.91;1717446;82;21549;-62
2022/10/04 10:03:41;;;;;;;2.80;0.50;;;;;;;13.61;82.74;99754.47;1723318;82;21012;-62
2022/10/04 10:06:52;;;;;;;2.95;0.62;;;;;;;13.56;81.73;99752.58;1721952;82;21099;-62
2022/10/04 10:16:28;;;;;;;2.27;0.57;;;;;;;13.68;79.48;99761.97;1727569;82;20099;-62
2022/10/04 10:19:28;;;;;;;2.05;0.82;;;;;;;13.61;78.97;99763.66;1728039;81;20894;-62
2022/10/04 10:22:37;;;;;;;1.20;0.50;;;;;;;13.81;82.08;99761.62;1713613;82;21947;-62
2022/10/04 10:25:47;;;;;;;2.33;0.47;;;;;;;13.85;78.24;99768.36;1718890;81;20933;-63
2022/10/04 10:28:28;;;;;;;3.37;1.02;;;;;;;13.78;81.35;99764.41;1751432;81;20923;-63
2022/10/04 10:31:16;;;;;;;1.35;0.33;;;;;;;13.87;79.63;99759.94;1748471;81;20932;-63
2022/10/04 10:34:14;;;;;;;2.40;0.80;;;;;;;14.10;80.76;99763.31;1738587;80;20947;-64
2022/10/04 10:37:34;;;;;;;2.25;0.30;;;;;;;14.10;81.24;99763.31;1737529;80;21086;-63
2022/10/04 10:40:45;;;;;;;1.07;0.40;;;;;;;14.20;78.87;99765.36;1748022;80;21655;-63
2022/10/04 10:43:36;;;;;;;1.02;0.40;;;;;;;14.01;78.40;99771.76;1749951;81;20965;-64
2022/10/04 10:46:30;;;;;;;2.55;0.57;;;;;;;14.01;77.05;99781.42;1749852;81;21024;-62
2022/10/04 10:49:32;;;;;;;1.75;0.50;;;;;;;14.03;77.89;99775.14;1747738;80;20961;-62
2022/10/04 10:52:27;;;;;;;1.80;0.40;;;;;;;13.97;77.81;99774.65;1711472;82;21718;-61
2022/10/04 10:55:06;;;;;;;0.65;0.33;;;;;;;14.00;76.01;99793.70;1707052;82;20936;-62
2022/10/04 10:58:15;;;;;;;1.62;0.45;;;;;;;14.10;77.36;99776.44;1718392;82;21072;-63
2022/10/04 11:01:12;;;;;;;2.40;0.47;;;;;;;14.22;78.15;99780.56;1707768;83;21016;-63
2022/10/04 11:04:02;;;;;;;1.75;0.45;;;;;;;14.33;74.38;99786.00;1707294;83;21585;-62
2022/10/04 11:06:59;;;;;;;1.15;0.30;;;;;;;14.42;76.44;99791.99;1696738;84;21447;-64
2022/10/04 11:09:50;;;;;;;1.35;0.53;;;;;;;14.18;73.43;99783.02;1698518;84;21034;-63
2022/10/04 11:12:48;;;;;;;1.47;0.35;;;;;;;13.96;71.35;99789.56;1734612;81;21431;-64
2022/10/04 11:15:53;;;;;;;1.05;0.47;;;;;;;14.08;72.13;99801.94;1715725;81;21517;-64
2022/10/04 11:18:59;;;;;;;1.27;0.60;;;;;;;14.18;74.42;99794.84;1693813;83;21088;-63
2022/10/04 11:21:37;;;;;;;1.85;0.50;;;;;;;14.34;73.33;99792.96;1721468;82;21153;-63
2022/10/04 11:24:35;;;;;;;1.30;0.50;;;;;;;14.50;74.47;99805.50;1721353;81;21022;-64
2022/10/04 11:27:07;;;;;;;0.80;0.30;;;;;;;14.42;74.39;99805.13;1705272;82;21492;-63
2022/10/04 11:29:58;;;;;;;1.37;0.50;;;;;;;14.25;74.56;99805.33;1722236;81;20960;-62
2022/10/04 11:33:00;;;;;;;1.67;0.50;;;;;;;14.14;73.66;99811.70;1700037;82;21025;-62
2022/10/04 11:36:00;;;;;;;2.33;0.42;;;;;;;13.97;73.37;99804.36;1711061;81;21676;-62
2022/10/04 11:39:08;;;;;;;0.95;0.40;;;;;;;13.79;73.53;99803.69;1701806;83;20986;-62
2022/10/04 11:41:57;;;;;;;0.78;0.37;;;;;;;13.74;74.12;99804.90;1698645;83;21627;-62
2022/10/04 11:44:40;;;;;;;1.50;0.50;;;;;;;13.79;73.51;99808.94;1737275;81;20946;-62
2022/10/04 11:47:39;;;;;;;2.45;0.40;;;;;;;13.94;74.94;99799.30;1743803;81;20903;-62
2022/10/04 11:50:29;;;;;;;2.17;0.95;;;;;;;14.02;74.36;99799.69;1771980;80;21856;-62
2022/10/04 11:53:20;;;;;;;1.35;0.40;;;;;;;13.90;73.77;99803.06;1777940;79;21127;-63
2022/10/04 11:56:09;;;;;;;0.50;0.23;;;;;;;13.73;73.22;99799.28;1767507;80;21453;-62
2022/10/04 11:59:04;;;;;;;1.45;0.60;;;;;;;13.62;71.83;99798.59;1770140;80;21040;-62
2022/10/04 12:02:09;;;;;;;1.05;0.50;;;;;;;13.51;70.98;99809.72;1773880;80;21035;-62
2022/10/04 12:05:15;;;;;;;5.60;0.57;;;;;;;13.61;70.42;99800.38;1768054;80;21858;-63
2022/10/04 12:07:45;;;;;;;;;;;;;;;13.71;68.09;99810.33;1772632;80;20938;-62
2022/10/04 12:10:20;;;;;;;1.62;0.60;;;;;;;13.89;71.86;99806.59;1777245;79;20501;-62
2022/10/04 12:13:20;;;;;;;0.62;0.40;;;;;;;14.01;70.34;99805.05;1770570;79;21045;-60
2022/10/04 12:16:16;;;;;;;2.98;0.50;;;;;;;14.15;72.05;99804.22;1770569;80;20962;-61
2022/10/04 12:19:18;;;;;;;0.53;0.30;;;;;;;14.29;72.37;99804.22;1773208;80;21137;-62
2022/10/04 12:22:24;;;;;;;0.60;0.30;;;;;;;14.30;70.79;99798.02;1772051;80;20910;-62
2022/10/04 12:25:08;;;;;;;1.72;0.30;;;;;;;14.00;68.17;99816.02;1773513;79;21460;-62
2022/10/04 12:27:53;;;;;;;1.12;0.30;;;;;;;13.93;67.85;99804.66;1773170;79;21041;-62
2022/10/04 12:30:25;;;;;;;1.95;0.33;;;;;;;13.93;67.44;99813.38;1705142;82;21549;-62
2022/10/04 12:33:12;;;;;;;1.15;0.50;;;;;;;13.94;68.67;99812.42;1706039;82;22116;-61
2022/10/04 12:36:09;;;;;;;1.07;0.40;;;;;;;13.95;68.06;99814.13;1707519;82;21059;-61
2022/10/04 12:38:50;;;;;;;;;;;;;;;14.01;68.45;99813.77;1682634;83;21037;-63
2022/10/04 12:41:44;;;;;;;1.82;0.40;;;;;;;14.06;67.75;99816.96;1716024;81;20124;-62
2022/10/04 12:44:39;;;;;;;2.45;0.40;;;;;;;14.06;69.06;99816.96;1708564;82;20965;-62
2022/10/04 12:47:49;;;;;;;1.70;0.47;;;;;;;14.00;68.86;99821.27;1677096;83;21038;-62
2022/10/04 12:50:48;;;;;;;2.70;0.40;;;;;;;13.76;68.47;99829.28;1712127;82;20948;-62
2022/10/04 12:53:53;;;;;;;3.60;0.60;;;;;;;13.61;69.04;99828.38;1705380;82;20925;-62
2022/10/04 12:56:57;;;;;;;0.55;0.30;;;;;;;13.49;69.21;99820.75;1718994;81;21062;-62
2022/10/04 12:59:52;;;;;;;1.10;0.40;;;;;;;13.48;69.45;99812.52;1739210;80;20862;-62
2022/10/04 13:02:37;;;;;;;1.60;0.50;;;;;;;13.59;69.13;99820.61;1741311;80;21240;-62
2022/10/04 13:05:32;;;;;;;1.50;0.57;;;;;;;13.69;69.56;99817.44;1746616;80;20881;-62
2022/10/04 13:08:42;;;;;;;1.05;0.75;;;;;;;13.78;69.83;99819.52;1791451;78;21423;-62
2022/10/04 13:11:38;;;;;;;9.15;2.25;;;;;;;13.93;69.03;99809.91;1806800;78;20993;-61
2022/10/04 13:14:34;;;;;;;0.30;0.30;;;;;;;13.96;69.57;99811.03;1801954;78;21999;-62